sensor_id;sensor_type;location;lat;lon;timestamp;P1;durP1;ratioP1;P2;durP2;ratioP2
31224;SDS011;17847;31.524;74.366;2022-12-07T00:00:26;184.18;;;98.35;;
31224;SDS011;17847;31.524;74.366;2022-12-07T00:03:21;180.48;;;96.70;;
31224;SDS011;17847;31.524;74.366;2022-12-07T00:06:05;189.43;;;98.05;;
31224;SDS011;17847;31.524;74.366;2022-12-07T00:09:01;195.18;;;100.10;;
31224;SDS011;17847;31.524;74.366;2022-12-07T00:11:47;186.40;;;96.65;;
31224;SDS011;17847;31.524;74.366;2022-12-07T00:14:38;192.82;;;100.60;;
31224;SDS011;17847;31.524;74.366;2022-12-07T00:17:19;188.77;;;96.05;;
31224;SDS011;17847;31.524;74.366;2022-12-07T00:20:09;194.18;;;98.82;;
31224;SDS011;17847;31.524;74.366;2022-12-07T00:22:51;190.15;;;97.72;;
31224;SDS011;17847;31.524;74.366;2022-12-07T00:25:40;179.32;;;95.35;;
31224;SDS011;17847;31.524;74.366;2022-12-07T00:28:15;188.68;;;97.65;;
31224;SDS011;17847;31.524;74.366;2022-12-07T00:31:11;182.25;;;95.75;;
31224;SDS011;17847;31.524;74.366;2022-12-07T00:33:49;180.38;;;95.28;;
31224;SDS011;17847;31.524;74.366;2022-12-07T00:36:45;186.07;;;97.75;;
31224;SDS011;17847;31.524;74.366;2022-12-07T00:39:27;190.18;;;97.85;;
31224;SDS011;17847;31.524;74.366;2022-12-07T00:42:16;194.48;;;102.32;;
31224;SDS011;17847;31.524;74.366;2022-12-07T00:44:58;187.35;;;100.35;;
31224;SDS011;17847;31.524;74.366;2022-12-07T00:47:54;187.45;;;99.28;;
31224;SDS011;17847;31.524;74.366;2022-12-07T00:50:36;197.65;;;100.30;;
31224;SDS011;17847;31.524;74.366;2022-12-07T00:53:25;191.60;;;97.97;;
31224;SDS011;17847;31.524;74.366;2022-12-07T00:56:15;194.25;;;101.85;;
31224;SDS011;17847;31.524;74.366;2022-12-07T00:59:12;186.38;;;98.15;;
31224;SDS011;17847;31.524;74.366;2022-12-07T01:01:58;201.38;;;100.22;;
31224;SDS011;17847;31.524;74.366;2022-12-07T01:04:46;200.20;;;99.53;;
31224;SDS011;17847;31.524;74.366;2022-12-07T01:07:29;194.27;;;100.55;;
31224;SDS011;17847;31.524;74.366;2022-12-07T01:10:17;188.25;;;99.00;;
31224;SDS011;17847;31.524;74.366;2022-12-07T01:12:59;187.70;;;95.50;;
31224;SDS011;17847;31.524;74.366;2022-12-07T01:15:48;188.88;;;100.43;;
31224;SDS011;17847;31.524;74.366;2022-12-07T01:18:31;190.48;;;99.60;;
31224;SDS011;17847;31.524;74.366;2022-12-07T01:21:23;190.60;;;101.15;;
31224;SDS011;17847;31.524;74.366;2022-12-07T01:24:10;193.23;;;103.15;;
31224;SDS011;17847;31.524;74.366;2022-12-07T01:26:59;201.60;;;105.93;;
31224;SDS011;17847;31.524;74.366;2022-12-07T01:29:41;203.05;;;104.97;;
31224;SDS011;17847;31.524;74.366;2022-12-07T01:32:37;201.80;;;105.85;;
31224;SDS011;17847;31.524;74.366;2022-12-07T01:35:19;211.20;;;107.68;;
31224;SDS011;17847;31.524;74.366;2022-12-07T01:38:09;220.70;;;108.75;;
31224;SDS011;17847;31.524;74.366;2022-12-07T01:40:55;214.82;;;107.57;;
31224;SDS011;17847;31.524;74.366;2022-12-07T01:46:50;219.13;;;108.88;;
31224;SDS011;17847;31.524;74.366;2022-12-07T01:49:50;218.23;;;108.95;;
31224;SDS011;17847;31.524;74.366;2022-12-07T01:52:27;211.00;;;112.07;;
31224;SDS011;17847;31.524;74.366;2022-12-07T01:55:26;215.90;;;109.75;;
31224;SDS011;17847;31.524;74.366;2022-12-07T01:58:22;216.75;;;110.07;;
31224;SDS011;17847;31.524;74.366;2022-12-07T02:01:05;215.57;;;108.47;;
31224;SDS011;17847;31.524;74.366;2022-12-07T02:04:01;205.80;;;107.30;;
31224;SDS011;17847;31.524;74.366;2022-12-07T02:06:44;208.50;;;109.32;;
31224;SDS011;17847;31.524;74.366;2022-12-07T02:09:34;216.32;;;107.97;;
31224;SDS011;17847;31.524;74.366;2022-12-07T02:12:09;215.75;;;108.07;;
31224;SDS011;17847;31.524;74.366;2022-12-07T02:15:05;207.00;;;107.70;;
31224;SDS011;17847;31.524;74.366;2022-12-07T02:30:40;228.02;;;111.00;;
31224;SDS011;17847;31.524;74.366;2022-12-07T02:33:31;228.23;;;113.35;;
31224;SDS011;17847;31.524;74.366;2022-12-07T02:36:29;239.70;;;118.20;;
31224;SDS011;17847;31.524;74.366;2022-12-07T02:39:16;221.93;;;115.13;;
31224;SDS011;17847;31.524;74.366;2022-12-07T02:42:14;232.52;;;118.43;;
31224;SDS011;17847;31.524;74.366;2022-12-07T02:45:07;227.13;;;113.22;;
31224;SDS011;17847;31.524;74.366;2022-12-07T02:47:58;223.05;;;110.55;;
31224;SDS011;17847;31.524;74.366;2022-12-07T02:50:49;218.95;;;111.63;;
31224;SDS011;17847;31.524;74.366;2022-12-07T02:53:40;225.98;;;110.53;;
31224;SDS011;17847;31.524;74.366;2022-12-07T03:12:09;230.90;;;114.63;;
31224;SDS011;17847;31.524;74.366;2022-12-07T03:14:55;220.80;;;110.45;;
31224;SDS011;17847;31.524;74.366;2022-12-07T03:18:18;228.80;;;111.45;;
31224;SDS011;17847;31.524;74.366;2022-12-07T03:20:58;225.68;;;113.43;;
31224;SDS011;17847;31.524;74.366;2022-12-07T03:23:58;220.00;;;109.32;;
31224;SDS011;17847;31.524;74.366;2022-12-07T03:26:40;208.93;;;108.40;;
31224;SDS011;17847;31.524;74.366;2022-12-07T03:29:40;200.65;;;98.60;;
31224;SDS011;17847;31.524;74.366;2022-12-07T03:32:42;181.48;;;94.72;;
31224;SDS011;17847;31.524;74.366;2022-12-07T03:35:47;180.57;;;95.20;;
31224;SDS011;17847;31.524;74.366;2022-12-07T03:38:55;316.35;;;92.60;;
31224;SDS011;17847;31.524;74.366;2022-12-07T03:41:51;166.63;;;81.75;;
31224;SDS011;17847;31.524;74.366;2022-12-07T03:44:35;145.77;;;76.00;;
31224;SDS011;17847;31.524;74.366;2022-12-07T03:50:43;131.93;;;70.10;;
31224;SDS011;17847;31.524;74.366;2022-12-07T03:53:53;139.40;;;68.68;;
31224;SDS011;17847;31.524;74.366;2022-12-07T03:56:42;127.53;;;64.97;;
31224;SDS011;17847;31.524;74.366;2022-12-07T03:59:32;132.63;;;70.03;;
31224;SDS011;17847;31.524;74.366;2022-12-07T04:02:15;132.93;;;67.45;;
31224;SDS011;17847;31.524;74.366;2022-12-07T04:05:11;136.32;;;69.22;;
31224;SDS011;17847;31.524;74.366;2022-12-07T04:07:47;128.43;;;69.28;;
31224;SDS011;17847;31.524;74.366;2022-12-07T04:10:42;123.25;;;61.25;;
31224;SDS011;17847;31.524;74.366;2022-12-07T04:13:17;107.47;;;60.03;;
31224;SDS011;17847;31.524;74.366;2022-12-07T04:16:13;110.80;;;55.72;;
31224;SDS011;17847;31.524;74.366;2022-12-07T04:18:48;105.72;;;56.17;;
31224;SDS011;17847;31.524;74.366;2022-12-07T04:21:44;109.90;;;56.75;;
31224;SDS011;17847;31.524;74.366;2022-12-07T04:24:21;113.70;;;57.50;;
31224;SDS011;17847;31.524;74.366;2022-12-07T04:27:17;108.90;;;58.13;;
31224;SDS011;17847;31.524;74.366;2022-12-07T04:29:59;109.95;;;57.47;;
31224;SDS011;17847;31.524;74.366;2022-12-07T04:32:48;92.40;;;56.72;;
31224;SDS011;17847;31.524;74.366;2022-12-07T04:35:31;101.78;;;55.08;;
31224;SDS011;17847;31.524;74.366;2022-12-07T04:38:26;99.22;;;55.35;;
31224;SDS011;17847;31.524;74.366;2022-12-07T04:41:21;97.20;;;52.53;;
31224;SDS011;17847;31.524;74.366;2022-12-07T04:44:04;96.95;;;54.70;;
31224;SDS011;17847;31.524;74.366;2022-12-07T04:46:55;97.03;;;54.42;;
31224;SDS011;17847;31.524;74.366;2022-12-07T04:49:38;108.78;;;54.30;;
31224;SDS011;17847;31.524;74.366;2022-12-07T04:52:34;99.60;;;54.08;;
31224;SDS011;17847;31.524;74.366;2022-12-07T04:55:16;98.68;;;54.55;;
31224;SDS011;17847;31.524;74.366;2022-12-07T04:58:12;96.20;;;53.00;;
31224;SDS011;17847;31.524;74.366;2022-12-07T05:00:49;106.32;;;54.92;;
31224;SDS011;17847;31.524;74.366;2022-12-07T05:03:44;104.82;;;54.88;;
31224;SDS011;17847;31.524;74.366;2022-12-07T05:06:20;109.57;;;59.15;;
31224;SDS011;17847;31.524;74.366;2022-12-07T05:09:16;113.65;;;59.22;;
31224;SDS011;17847;31.524;74.366;2022-12-07T05:11:58;110.97;;;58.58;;
31224;SDS011;17847;31.524;74.366;2022-12-07T05:14:47;101.60;;;59.75;;
31224;SDS011;17847;31.524;74.366;2022-12-07T05:17:28;104.45;;;58.80;;
31224;SDS011;17847;31.524;74.366;2022-12-07T05:20:17;104.30;;;59.35;;
31224;SDS011;17847;31.524;74.366;2022-12-07T05:22:59;117.65;;;55.03;;
31224;SDS011;17847;31.524;74.366;2022-12-07T05:25:48;95.72;;;53.38;;
31224;SDS011;17847;31.524;74.366;2022-12-07T05:28:36;97.18;;;52.03;;
31224;SDS011;17847;31.524;74.366;2022-12-07T05:31:19;87.85;;;48.08;;
31224;SDS011;17847;31.524;74.366;2022-12-07T05:34:15;88.60;;;48.05;;
31224;SDS011;17847;31.524;74.366;2022-12-07T05:36:50;84.82;;;49.05;;
31224;SDS011;17847;31.524;74.366;2022-12-07T05:39:46;98.35;;;51.42;;
31224;SDS011;17847;31.524;74.366;2022-12-07T05:42:27;101.70;;;54.53;;
31224;SDS011;17847;31.524;74.366;2022-12-07T05:45:16;96.63;;;52.30;;
31224;SDS011;17847;31.524;74.366;2022-12-07T05:47:58;90.68;;;52.08;;
31224;SDS011;17847;31.524;74.366;2022-12-07T05:50:48;105.28;;;51.85;;
31224;SDS011;17847;31.524;74.366;2022-12-07T05:53:25;84.70;;;47.80;;
31224;SDS011;17847;31.524;74.366;2022-12-07T05:56:20;82.15;;;44.13;;
31224;SDS011;17847;31.524;74.366;2022-12-07T05:59:02;76.43;;;41.08;;
31224;SDS011;17847;31.524;74.366;2022-12-07T06:02:11;73.97;;;39.08;;
31224;SDS011;17847;31.524;74.366;2022-12-07T06:04:49;77.45;;;40.10;;
31224;SDS011;17847;31.524;74.366;2022-12-07T06:07:44;80.97;;;46.40;;
31224;SDS011;17847;31.524;74.366;2022-12-07T06:10:25;95.22;;;50.85;;
31224;SDS011;17847;31.524;74.366;2022-12-07T06:13:14;88.55;;;52.40;;
31224;SDS011;17847;31.524;74.366;2022-12-07T06:15:55;103.35;;;50.35;;
31224;SDS011;17847;31.524;74.366;2022-12-07T06:18:44;96.95;;;51.40;;
31224;SDS011;17847;31.524;74.366;2022-12-07T06:21:25;92.00;;;52.13;;
31224;SDS011;17847;31.524;74.366;2022-12-07T06:24:16;105.65;;;54.17;;
31224;SDS011;17847;31.524;74.366;2022-12-07T06:26:52;106.90;;;52.72;;
31224;SDS011;17847;31.524;74.366;2022-12-07T06:29:48;88.55;;;48.38;;
31224;SDS011;17847;31.524;74.366;2022-12-07T06:32:23;78.03;;;45.20;;
31224;SDS011;17847;31.524;74.366;2022-12-07T06:35:19;68.00;;;36.83;;
31224;SDS011;17847;31.524;74.366;2022-12-07T06:38:01;75.72;;;42.60;;
31224;SDS011;17847;31.524;74.366;2022-12-07T06:40:57;81.45;;;42.35;;
31224;SDS011;17847;31.524;74.366;2022-12-07T06:43:32;69.88;;;42.17;;
31224;SDS011;17847;31.524;74.366;2022-12-07T06:46:34;72.68;;;39.13;;
31224;SDS011;17847;31.524;74.366;2022-12-07T06:49:13;64.25;;;37.28;;
31224;SDS011;17847;31.524;74.366;2022-12-07T06:52:08;67.47;;;37.85;;
31224;SDS011;17847;31.524;74.366;2022-12-07T06:54:43;64.28;;;37.35;;
31224;SDS011;17847;31.524;74.366;2022-12-07T06:57:39;65.65;;;40.67;;
31224;SDS011;17847;31.524;74.366;2022-12-07T07:00:15;83.22;;;48.67;;
31224;SDS011;17847;31.524;74.366;2022-12-07T07:03:10;85.38;;;47.65;;
31224;SDS011;17847;31.524;74.366;2022-12-07T07:05:52;84.78;;;46.85;;
31224;SDS011;17847;31.524;74.366;2022-12-07T07:08:41;74.40;;;45.78;;
31224;SDS011;17847;31.524;74.366;2022-12-07T07:11:23;80.57;;;43.60;;
31224;SDS011;17847;31.524;74.366;2022-12-07T07:14:12;87.28;;;43.30;;
31224;SDS011;17847;31.524;74.366;2022-12-07T07:16:58;84.32;;;44.75;;
31224;SDS011;17847;31.524;74.366;2022-12-07T07:19:46;84.57;;;46.17;;
31224;SDS011;17847;31.524;74.366;2022-12-07T07:22:28;77.43;;;44.60;;
31224;SDS011;17847;31.524;74.366;2022-12-07T07:25:17;79.57;;;43.92;;
31224;SDS011;17847;31.524;74.366;2022-12-07T07:28:06;78.90;;;42.08;;
31224;SDS011;17847;31.524;74.366;2022-12-07T07:31:01;78.63;;;44.58;;
31224;SDS011;17847;31.524;74.366;2022-12-07T07:33:44;87.35;;;43.42;;
31224;SDS011;17847;31.524;74.366;2022-12-07T07:36:41;84.47;;;43.97;;
31224;SDS011;17847;31.524;74.366;2022-12-07T07:39:23;91.15;;;44.60;;
31224;SDS011;17847;31.524;74.366;2022-12-07T07:42:12;84.57;;;45.80;;
31224;SDS011;17847;31.524;74.366;2022-12-07T07:44:55;84.93;;;45.97;;
31224;SDS011;17847;31.524;74.366;2022-12-07T07:47:45;85.18;;;47.85;;
31224;SDS011;17847;31.524;74.366;2022-12-07T07:50:26;100.18;;;48.85;;
31224;SDS011;17847;31.524;74.366;2022-12-07T07:53:16;83.28;;;45.28;;
31224;SDS011;17847;31.524;74.366;2022-12-07T07:55:52;99.65;;;46.35;;
31224;SDS011;17847;31.524;74.366;2022-12-07T07:58:51;82.85;;;45.53;;
31224;SDS011;17847;31.524;74.366;2022-12-07T08:01:33;92.80;;;44.00;;
31224;SDS011;17847;31.524;74.366;2022-12-07T08:07:06;90.05;;;44.63;;
31224;SDS011;17847;31.524;74.366;2022-12-07T08:09:55;82.95;;;44.50;;
31224;SDS011;17847;31.524;74.366;2022-12-07T08:12:38;87.65;;;44.80;;
31224;SDS011;17847;31.524;74.366;2022-12-07T08:15:47;77.03;;;44.05;;
31224;SDS011;17847;31.524;74.366;2022-12-07T08:18:23;96.00;;;46.08;;
31224;SDS011;17847;31.524;74.366;2022-12-07T08:21:19;86.95;;;46.55;;
31224;SDS011;17847;31.524;74.366;2022-12-07T08:24:02;86.78;;;46.30;;
31224;SDS011;17847;31.524;74.366;2022-12-07T08:26:50;78.10;;;44.97;;
31224;SDS011;17847;31.524;74.366;2022-12-07T08:29:39;81.13;;;47.60;;
31224;SDS011;17847;31.524;74.366;2022-12-07T08:32:20;80.22;;;46.08;;
31224;SDS011;17847;31.524;74.366;2022-12-07T08:35:10;83.45;;;47.92;;
31224;SDS011;17847;31.524;74.366;2022-12-07T08:37:45;82.15;;;47.70;;
31224;SDS011;17847;31.524;74.366;2022-12-07T08:40:41;83.35;;;50.03;;
31224;SDS011;17847;31.524;74.366;2022-12-07T08:43:23;91.18;;;48.25;;
31224;SDS011;17847;31.524;74.366;2022-12-07T08:49:06;86.32;;;47.30;;
31224;SDS011;17847;31.524;74.366;2022-12-07T08:51:58;84.35;;;47.85;;
31224;SDS011;17847;31.524;74.366;2022-12-07T08:54:39;84.10;;;48.88;;
31224;SDS011;17847;31.524;74.366;2022-12-07T08:57:30;89.93;;;48.40;;
31224;SDS011;17847;31.524;74.366;2022-12-07T09:00:16;95.80;;;50.03;;
31224;SDS011;17847;31.524;74.366;2022-12-07T09:03:06;89.47;;;49.80;;
31224;SDS011;17847;31.524;74.366;2022-12-07T09:05:47;93.50;;;48.67;;
31224;SDS011;17847;31.524;74.366;2022-12-07T09:08:41;84.43;;;48.25;;
31224;SDS011;17847;31.524;74.366;2022-12-07T09:11:40;89.22;;;45.10;;
31224;SDS011;17847;31.524;74.366;2022-12-07T09:14:23;84.57;;;45.33;;
31224;SDS011;17847;31.524;74.366;2022-12-07T09:17:12;78.07;;;44.37;;
31224;SDS011;17847;31.524;74.366;2022-12-07T09:19:55;83.15;;;44.78;;
31224;SDS011;17847;31.524;74.366;2022-12-07T09:22:45;85.78;;;41.90;;
31224;SDS011;17847;31.524;74.366;2022-12-07T09:25:28;67.72;;;38.90;;
31224;SDS011;17847;31.524;74.366;2022-12-07T09:28:23;66.18;;;32.60;;
31224;SDS011;17847;31.524;74.366;2022-12-07T09:31:06;61.33;;;30.67;;
31224;SDS011;17847;31.524;74.366;2022-12-07T09:34:03;54.40;;;27.15;;
31224;SDS011;17847;31.524;74.366;2022-12-07T09:36:46;53.35;;;26.65;;
31224;SDS011;17847;31.524;74.366;2022-12-07T09:39:37;44.10;;;23.40;;
31224;SDS011;17847;31.524;74.366;2022-12-07T09:42:29;47.40;;;22.50;;
31224;SDS011;17847;31.524;74.366;2022-12-07T09:45:35;44.90;;;22.80;;
31224;SDS011;17847;31.524;74.366;2022-12-07T09:48:22;39.40;;;22.50;;
31224;SDS011;17847;31.524;74.366;2022-12-07T09:51:22;44.28;;;22.30;;
31224;SDS011;17847;31.524;74.366;2022-12-07T09:53:58;40.55;;;21.70;;
31224;SDS011;17847;31.524;74.366;2022-12-07T09:56:55;44.10;;;22.17;;
31224;SDS011;17847;31.524;74.366;2022-12-07T09:59:30;39.00;;;22.20;;
31224;SDS011;17847;31.524;74.366;2022-12-07T10:05:26;43.58;;;20.55;;
31224;SDS011;17847;31.524;74.366;2022-12-07T10:08:24;36.70;;;20.63;;
31224;SDS011;17847;31.524;74.366;2022-12-07T10:11:06;41.30;;;21.27;;
31224;SDS011;17847;31.524;74.366;2022-12-07T10:14:10;39.70;;;22.25;;
31224;SDS011;17847;31.524;74.366;2022-12-07T10:17:34;35.05;;;21.52;;
31224;SDS011;17847;31.524;74.366;2022-12-07T10:20:28;42.00;;;21.65;;
31224;SDS011;17847;31.524;74.366;2022-12-07T10:23:17;42.65;;;21.73;;
31224;SDS011;17847;31.524;74.366;2022-12-07T10:26:26;43.55;;;20.85;;
31224;SDS011;17847;31.524;74.366;2022-12-07T10:29:34;44.65;;;19.98;;
31224;SDS011;17847;31.524;74.366;2022-12-07T10:35:25;39.33;;;22.25;;
31224;SDS011;17847;31.524;74.366;2022-12-07T10:38:07;36.58;;;19.95;;
31224;SDS011;17847;31.524;74.366;2022-12-07T10:41:11;41.90;;;22.23;;
31224;SDS011;17847;31.524;74.366;2022-12-07T10:43:54;36.25;;;22.92;;
31224;SDS011;17847;31.524;74.366;2022-12-07T10:50:10;42.42;;;24.15;;
31224;SDS011;17847;31.524;74.366;2022-12-07T10:59:51;42.45;;;22.90;;
31224;SDS011;17847;31.524;74.366;2022-12-07T11:03:00;44.95;;;25.98;;
31224;SDS011;17847;31.524;74.366;2022-12-07T11:34:44;37.20;;;19.95;;
31224;SDS011;17847;31.524;74.366;2022-12-07T11:37:41;42.20;;;22.48;;
31224;SDS011;17847;31.524;74.366;2022-12-07T11:40:28;39.63;;;22.33;;
31224;SDS011;17847;31.524;74.366;2022-12-07T11:43:26;45.95;;;23.23;;
31224;SDS011;17847;31.524;74.366;2022-12-07T11:46:14;37.40;;;22.15;;
31224;SDS011;17847;31.524;74.366;2022-12-07T11:49:19;49.75;;;24.38;;
31224;SDS011;17847;31.524;74.366;2022-12-07T11:58:35;51.00;;;24.50;;
31224;SDS011;17847;31.524;74.366;2022-12-07T12:04:23;53.50;;;26.48;;
31224;SDS011;17847;31.524;74.366;2022-12-07T12:07:21;61.97;;;27.43;;
31224;SDS011;17847;31.524;74.366;2022-12-07T12:23:17;58.85;;;26.98;;
31224;SDS011;17847;31.524;74.366;2022-12-07T12:26:15;66.30;;;29.67;;
31224;SDS011;17847;31.524;74.366;2022-12-07T12:28:58;53.60;;;26.02;;
31224;SDS011;17847;31.524;74.366;2022-12-07T12:32:18;60.35;;;27.33;;
31224;SDS011;17847;31.524;74.366;2022-12-07T12:38:26;59.30;;;29.30;;
31224;SDS011;17847;31.524;74.366;2022-12-07T12:41:08;63.45;;;29.83;;
31224;SDS011;17847;31.524;74.366;2022-12-07T12:50:45;76.90;;;30.90;;
31224;SDS011;17847;31.524;74.366;2022-12-07T12:53:24;82.05;;;32.38;;
31224;SDS011;17847;31.524;74.366;2022-12-07T12:59:32;74.78;;;34.05;;
31224;SDS011;17847;31.524;74.366;2022-12-07T13:02:37;74.20;;;35.83;;
31224;SDS011;17847;31.524;74.366;2022-12-07T13:08:21;78.15;;;36.15;;
31224;SDS011;17847;31.524;74.366;2022-12-07T13:26:42;97.13;;;37.30;;
31224;SDS011;17847;31.524;74.366;2022-12-07T13:29:36;97.22;;;38.65;;
31224;SDS011;17847;31.524;74.366;2022-12-07T13:32:32;96.22;;;36.15;;
31224;SDS011;17847;31.524;74.366;2022-12-07T13:38:34;92.85;;;40.53;;
31224;SDS011;17847;31.524;74.366;2022-12-07T13:41:19;110.95;;;40.85;;
31224;SDS011;17847;31.524;74.366;2022-12-07T13:44:17;87.18;;;40.20;;
31224;SDS011;17847;31.524;74.366;2022-12-07T13:47:04;101.80;;;41.40;;
31224;SDS011;17847;31.524;74.366;2022-12-07T13:49:55;97.78;;;43.45;;
31224;SDS011;17847;31.524;74.366;2022-12-07T13:52:31;125.80;;;54.08;;
31224;SDS011;17847;31.524;74.366;2022-12-07T13:55:28;164.80;;;77.97;;
31224;SDS011;17847;31.524;74.366;2022-12-07T13:58:04;155.13;;;71.40;;
31224;SDS011;17847;31.524;74.366;2022-12-07T14:01:00;138.43;;;60.78;;
31224;SDS011;17847;31.524;74.366;2022-12-07T14:03:35;125.43;;;55.15;;
31224;SDS011;17847;31.524;74.366;2022-12-07T14:06:31;115.40;;;51.15;;
31224;SDS011;17847;31.524;74.366;2022-12-07T14:09:07;113.50;;;51.30;;
31224;SDS011;17847;31.524;74.366;2022-12-07T14:12:13;110.95;;;49.58;;
31224;SDS011;17847;31.524;74.366;2022-12-07T14:14:55;121.15;;;51.92;;
31224;SDS011;17847;31.524;74.366;2022-12-07T14:17:53;126.85;;;54.20;;
31224;SDS011;17847;31.524;74.366;2022-12-07T14:20:40;123.47;;;51.28;;
31224;SDS011;17847;31.524;74.366;2022-12-07T14:23:29;152.35;;;56.13;;
31224;SDS011;17847;31.524;74.366;2022-12-07T14:26:14;140.10;;;54.17;;
31224;SDS011;17847;31.524;74.366;2022-12-07T14:29:48;132.07;;;54.50;;
31224;SDS011;17847;31.524;74.366;2022-12-07T14:32:37;139.82;;;55.08;;
31224;SDS011;17847;31.524;74.366;2022-12-07T14:35:20;144.90;;;54.85;;
31224;SDS011;17847;31.524;74.366;2022-12-07T14:38:09;125.63;;;55.33;;
31224;SDS011;17847;31.524;74.366;2022-12-07T14:40:52;125.63;;;54.88;;
31224;SDS011;17847;31.524;74.366;2022-12-07T14:44:11;127.13;;;54.08;;
31224;SDS011;17847;31.524;74.366;2022-12-07T14:46:57;133.98;;;55.08;;
31224;SDS011;17847;31.524;74.366;2022-12-07T14:50:13;172.20;;;78.35;;
31224;SDS011;17847;31.524;74.366;2022-12-07T14:52:59;181.27;;;85.88;;
31224;SDS011;17847;31.524;74.366;2022-12-07T14:56:01;205.18;;;101.93;;
31224;SDS011;17847;31.524;74.366;2022-12-07T14:58:46;189.15;;;88.03;;
31224;SDS011;17847;31.524;74.366;2022-12-07T15:01:35;163.40;;;78.07;;
31224;SDS011;17847;31.524;74.366;2022-12-07T15:04:17;148.05;;;72.22;;
31224;SDS011;17847;31.524;74.366;2022-12-07T15:07:09;133.18;;;67.88;;
31224;SDS011;17847;31.524;74.366;2022-12-07T15:10:03;149.02;;;68.18;;
31224;SDS011;17847;31.524;74.366;2022-12-07T15:13:03;142.27;;;72.53;;
31224;SDS011;17847;31.524;74.366;2022-12-07T15:16:04;129.50;;;68.10;;
31224;SDS011;17847;31.524;74.366;2022-12-07T15:18:57;122.72;;;62.17;;
31224;SDS011;17847;31.524;74.366;2022-12-07T15:21:59;115.70;;;58.22;;
31224;SDS011;17847;31.524;74.366;2022-12-07T15:24:48;108.90;;;58.38;;
31224;SDS011;17847;31.524;74.366;2022-12-07T15:27:31;100.65;;;53.75;;
31224;SDS011;17847;31.524;74.366;2022-12-07T15:30:28;107.90;;;54.60;;
31224;SDS011;17847;31.524;74.366;2022-12-07T15:33:12;97.35;;;52.25;;
31224;SDS011;17847;31.524;74.366;2022-12-07T15:36:02;101.18;;;52.92;;
31224;SDS011;17847;31.524;74.366;2022-12-07T15:38:44;97.85;;;51.72;;
31224;SDS011;17847;31.524;74.366;2022-12-07T15:44:30;88.07;;;47.17;;
31224;SDS011;17847;31.524;74.366;2022-12-07T15:47:45;101.03;;;48.67;;
31224;SDS011;17847;31.524;74.366;2022-12-07T15:50:40;97.38;;;48.10;;
31224;SDS011;17847;31.524;74.366;2022-12-07T15:53:36;90.30;;;45.65;;
31224;SDS011;17847;31.524;74.366;2022-12-07T15:56:12;94.38;;;48.28;;
31224;SDS011;17847;31.524;74.366;2022-12-07T15:59:08;88.30;;;47.15;;
31224;SDS011;17847;31.524;74.366;2022-12-07T16:01:43;91.65;;;47.58;;
31224;SDS011;17847;31.524;74.366;2022-12-07T16:04:39;98.78;;;48.08;;
31224;SDS011;17847;31.524;74.366;2022-12-07T16:07:16;83.40;;;46.90;;
31224;SDS011;17847;31.524;74.366;2022-12-07T16:10:12;93.07;;;47.63;;
31224;SDS011;17847;31.524;74.366;2022-12-07T16:12:54;94.03;;;46.42;;
31224;SDS011;17847;31.524;74.366;2022-12-07T16:15:50;81.60;;;45.40;;
31224;SDS011;17847;31.524;74.366;2022-12-07T16:18:26;82.80;;;46.78;;
31224;SDS011;17847;31.524;74.366;2022-12-07T16:21:23;88.75;;;47.40;;
31224;SDS011;17847;31.524;74.366;2022-12-07T16:24:06;85.05;;;46.55;;
31224;SDS011;17847;31.524;74.366;2022-12-07T16:27:03;99.50;;;49.03;;
31224;SDS011;17847;31.524;74.366;2022-12-07T16:29:52;93.15;;;50.92;;
31224;SDS011;17847;31.524;74.366;2022-12-07T16:32:35;96.25;;;51.58;;
31224;SDS011;17847;31.524;74.366;2022-12-07T16:35:25;90.05;;;49.97;;
31224;SDS011;17847;31.524;74.366;2022-12-07T16:38:01;94.47;;;49.30;;
31224;SDS011;17847;31.524;74.366;2022-12-07T16:40:57;83.90;;;48.65;;
31224;SDS011;17847;31.524;74.366;2022-12-07T16:43:41;102.22;;;52.03;;
31224;SDS011;17847;31.524;74.366;2022-12-07T16:46:31;98.53;;;50.75;;
31224;SDS011;17847;31.524;74.366;2022-12-07T16:49:16;91.88;;;51.55;;
31224;SDS011;17847;31.524;74.366;2022-12-07T16:52:05;100.40;;;50.13;;
31224;SDS011;17847;31.524;74.366;2022-12-07T16:54:53;99.00;;;52.45;;
31224;SDS011;17847;31.524;74.366;2022-12-07T16:57:44;91.40;;;51.15;;
31224;SDS011;17847;31.524;74.366;2022-12-07T17:00:26;93.05;;;50.45;;
31224;SDS011;17847;31.524;74.366;2022-12-07T17:03:16;88.63;;;53.05;;
31224;SDS011;17847;31.524;74.366;2022-12-07T17:06:00;88.38;;;51.75;;
31224;SDS011;17847;31.524;74.366;2022-12-07T17:08:57;93.15;;;50.92;;
31224;SDS011;17847;31.524;74.366;2022-12-07T17:11:52;102.60;;;51.08;;
31224;SDS011;17847;31.524;74.366;2022-12-07T17:17:36;105.35;;;52.45;;
31224;SDS011;17847;31.524;74.366;2022-12-07T17:20:33;102.70;;;53.17;;
31224;SDS011;17847;31.524;74.366;2022-12-07T17:23:16;90.65;;;52.10;;
31224;SDS011;17847;31.524;74.366;2022-12-07T17:26:07;84.88;;;53.22;;
31224;SDS011;17847;31.524;74.366;2022-12-07T17:28:59;107.70;;;56.60;;
31224;SDS011;17847;31.524;74.366;2022-12-07T17:31:56;101.40;;;55.63;;
31224;SDS011;17847;31.524;74.366;2022-12-07T17:34:31;113.50;;;59.78;;
31224;SDS011;17847;31.524;74.366;2022-12-07T17:37:27;102.15;;;57.63;;
31224;SDS011;17847;31.524;74.366;2022-12-07T17:40:02;102.80;;;59.30;;
31224;SDS011;17847;31.524;74.366;2022-12-07T17:42:59;104.28;;;57.33;;
31224;SDS011;17847;31.524;74.366;2022-12-07T17:45:42;122.40;;;60.58;;
31224;SDS011;17847;31.524;74.366;2022-12-07T17:48:30;111.65;;;60.03;;
31224;SDS011;17847;31.524;74.366;2022-12-07T17:51:12;121.45;;;63.03;;
31224;SDS011;17847;31.524;74.366;2022-12-07T17:54:19;100.45;;;59.95;;
31224;SDS011;17847;31.524;74.366;2022-12-07T17:57:02;109.82;;;61.55;;
31224;SDS011;17847;31.524;74.366;2022-12-07T17:59:44;118.15;;;63.10;;
31224;SDS011;17847;31.524;74.366;2022-12-07T18:02:44;114.50;;;64.70;;
31224;SDS011;17847;31.524;74.366;2022-12-07T18:05:26;122.45;;;66.55;;
31224;SDS011;17847;31.524;74.366;2022-12-07T18:08:22;114.53;;;64.57;;
31224;SDS011;17847;31.524;74.366;2022-12-07T18:11:05;124.45;;;66.68;;
31224;SDS011;17847;31.524;74.366;2022-12-07T18:14:01;121.95;;;66.82;;
31224;SDS011;17847;31.524;74.366;2022-12-07T18:16:37;121.88;;;70.85;;
31224;SDS011;17847;31.524;74.366;2022-12-07T18:19:33;127.18;;;68.43;;
31224;SDS011;17847;31.524;74.366;2022-12-07T18:22:17;131.57;;;72.25;;
31224;SDS011;17847;31.524;74.366;2022-12-07T18:25:13;137.50;;;75.80;;
31224;SDS011;17847;31.524;74.366;2022-12-07T18:27:54;141.95;;;78.20;;
31224;SDS011;17847;31.524;74.366;2022-12-07T18:30:43;138.18;;;78.68;;
31224;SDS011;17847;31.524;74.366;2022-12-07T18:33:54;146.50;;;79.78;;
31224;SDS011;17847;31.524;74.366;2022-12-07T18:36:38;142.30;;;79.35;;